Latest Weather Observations for Lord Howe Island Windy Point

IDN60801

Issued at 3:23 pm EDT Tuesday 18 January 2022 (issued every 10 minutes, with the page automatically refreshed every 10 minutes)

About weather observations | Map of weather stations | Latest weather observations for NSW | Other Formats
Station Details ID: 200715 Name: LORD HOWE ISLAND WINDY POINT Lat: -31.54 Lon: 159.07 Height: 4.0 m
Data from the previous 72 hours. | See also: Recent months at Lord Howe Island Windy Point
Date/Time
EDT
Temp
°C
App
Temp
°C
Dew
Point
°C
Rel
Hum
%
Delta-T
°C
Wind Press
QNH
hPa
Press
MSL
hPa
Rain since
9am
mm
Dir  Spd
km/h
Gust
km/h
Spd
kts
Gust
kts
18/03:00pm - - - - - E 22 32 12 17 - - -
18/02:30pm - - - - - ENE 20 32 11 17 - - -
18/02:00pm - - - - - E 22 33 12 18 - - -
18/01:30pm - - - - - E 22 32 12 17 - - -
18/01:00pm - - - - - E 20 28 11 15 - - -
18/12:30pm - - - - - ENE 20 30 11 16 - - -
18/12:00pm - - - - - E 22 32 12 17 - - -
18/11:30am - - - - - E 20 33 11 18 - - -
18/11:00am - - - - - E 22 37 12 20 - - -
18/10:30am - - - - - E 24 39 13 21 - - -
18/10:00am - - - - - E 20 33 11 18 - - -
18/09:30am - - - - - E 22 33 12 18 - - -
18/09:00am - - - - - E 19 33 10 18 - - -
18/08:30am - - - - - E 19 32 10 17 - - -
18/08:00am - - - - - ENE 17 28 9 15 - - -
18/07:30am - - - - - ENE 19 30 10 16 - - -
18/07:00am - - - - - ENE 19 28 10 15 - - -
18/06:30am - - - - - ENE 20 32 11 17 - - -
18/06:00am - - - - - ENE 19 30 10 16 - - -
18/05:30am - - - - - ENE 19 28 10 15 - - -
18/05:00am - - - - - ENE 20 26 11 14 - - -
18/04:30am - - - - - ENE 17 26 9 14 - - -
18/04:00am - - - - - E 13 24 7 13 - - -
18/03:30am - - - - - ENE 13 22 7 12 - - -
18/03:00am - - - - - NE 13 20 7 11 - - -
18/02:30am - - - - - NNE 13 20 7 11 - - -
18/02:00am - - - - - NE 13 20 7 11 - - -
18/01:30am - - - - - NE 11 26 6 14 - - -
18/01:00am - - - - - ENE 13 22 7 12 - - -
18/12:30am - - - - - E 11 24 6 13 - - -
18/12:00am - - - - - NE 11 24 6 13 - - -
 
Date/Time
EDT
Temp
°C
App
Temp
°C
Dew
Point
°C
Rel
Hum
%
Delta-T
°C
Wind Press
QNH
hPa
Press
MSL
hPa
Rain since
9am
mm
Dir  Spd
km/h
Gust
km/h
Spd
kts
Gust
kts
17/11:30pm - - - - - ENE 13 20 7 11 - - -
17/11:00pm - - - - - ENE 15 24 8 13 - - -
17/10:30pm - - - - - ENE 19 26 10 14 - - -
17/10:00pm - - - - - ENE 20 28 11 15 - - -
17/09:30pm - - - - - ENE 15 24 8 13 - - -
17/09:00pm - - - - - ENE 15 22 8 12 - - -
17/08:30pm - - - - - ENE 19 24 10 13 - - -
17/08:00pm - - - - - ENE 17 26 9 14 - - -
17/07:30pm - - - - - ENE 17 24 9 13 - - -
17/07:00pm - - - - - ENE 20 28 11 15 - - -
17/06:30pm - - - - - ENE 19 26 10 14 - - -
17/06:00pm - - - - - ENE 17 22 9 12 - - -
17/05:30pm - - - - - ENE 19 20 10 11 - - -
17/05:00pm - - - - - ENE 20 28 11 15 - - -
17/04:30pm - - - - - ENE 17 24 9 13 - - -
17/04:00pm - - - - - ENE 19 24 10 13 - - -
17/03:30pm - - - - - ENE 20 26 11 14 - - -
17/03:00pm - - - - - ENE 19 26 10 14 - - -
17/02:30pm - - - - - ENE 20 24 11 13 - - -
17/02:00pm - - - - - ENE 17 20 9 11 - - -
17/01:30pm - - - - - ENE 17 24 9 13 - - -
17/01:00pm - - - - - ENE 20 26 11 14 - - -
17/12:30pm - - - - - ENE 17 22 9 12 - - -
17/12:00pm - - - - - E 20 26 11 14 - - -
17/11:30am - - - - - NNE 9 24 5 13 - - -
17/11:00am - - - - - E 15 20 8 11 - - -
17/10:30am - - - - - ENE 17 20 9 11 - - -
17/10:00am - - - - - ENE 15 22 8 12 - - -
17/09:30am - - - - - ENE 15 17 8 9 - - -
17/09:00am - - - - - ENE 13 15 7 8 - - -
17/08:30am - - - - - E 15 20 8 11 - - -
17/08:00am - - - - - ENE 11 17 6 9 - - -
17/07:30am - - - - - E 11 13 6 7 - - -
17/07:00am - - - - - ENE 6 9 3 5 - - -
17/06:30am - - - - - NE 7 11 4 6 - - -
17/06:00am - - - - - NE 7 11 4 6 - - -
17/05:30am - - - - - NNE 9 11 5 6 - - -
17/05:00am - - - - - NE 7 11 4 6 - - -
17/04:30am - - - - - NE 7 11 4 6 - - -
17/04:00am - - - - - NE 7 11 4 6 - - -
17/03:30am - - - - - NE 9 11 5 6 - - -
17/03:00am - - - - - NNE 9 13 5 7 - - -
17/02:30am - - - - - NNE 9 13 5 7 - - -
17/02:00am - - - - - NNE 7 11 4 6 - - -
17/01:30am - - - - - NE 7 11 4 6 - - -
17/01:00am - - - - - NE 9 13 5 7 - - -
17/12:30am - - - - - NNE 7 13 4 7 - - -
17/12:00am - - - - - NNE 9 11 5 6 - - -
 
Date/Time
EDT
Temp
°C
App
Temp
°C
Dew
Point
°C
Rel
Hum
%
Delta-T
°C
Wind Press
QNH
hPa
Press
MSL
hPa
Rain since
9am
mm
Dir  Spd
km/h
Gust
km/h
Spd
kts
Gust
kts
16/11:30pm - - - - - NNE 7 13 4 7 - - -
16/11:00pm - - - - - NE 7 11 4 6 - - -
16/10:30pm - - - - - NE 7 13 4 7 - - -
16/10:00pm - - - - - NNE 7 11 4 6 - - -
16/09:30pm - - - - - NE 7 13 4 7 - - -
16/09:00pm - - - - - NNE 7 9 4 5 - - -
16/08:30pm - - - - - NE 9 15 5 8 - - -
16/08:00pm - - - - - ENE 13 17 7 9 - - -
16/07:30pm - - - - - ENE 9 15 5 8 - - -
16/07:00pm - - - - - ENE 13 19 7 10 - - -
16/06:30pm - - - - - ENE 13 20 7 11 - - -
16/06:00pm - - - - - ENE 13 24 7 13 - - -
16/05:30pm - - - - - E 17 22 9 12 - - -
16/05:00pm - - - - - ENE 13 20 7 11 - - -
16/04:30pm - - - - - NE 13 22 7 12 - - -
16/04:00pm - - - - - ENE 17 24 9 13 - - -
16/03:30pm - - - - - E 17 24 9 13 - - -
16/03:00pm - - - - - ENE 15 20 8 11 - - -
16/02:30pm - - - - - NE 17 20 9 11 - - -
16/02:00pm - - - - - NNE 15 22 8 12 - - -
16/01:30pm - - - - - NE 15 24 8 13 - - -
16/01:00pm - - - - - NNE 13 20 7 11 - - -
16/12:30pm - - - - - N 15 24 8 13 - - -
16/12:00pm - - - - - ENE 15 28 8 15 - - -
16/11:30am - - - - - N 13 20 7 11 - - -
16/11:00am - - - - - NNE 13 20 7 11 - - -
16/10:30am - - - - - N 13 20 7 11 - - -
16/10:00am - - - - - N 13 20 7 11 - - -
16/09:30am - - - - - N 11 19 6 10 - - -
16/09:00am - - - - - NNE 9 13 5 7 - - -
16/08:30am - - - - - WNW 13 19 7 10 - - -
16/08:00am - - - - - NNE 4 9 2 5 - - -
16/07:30am - - - - - NNE 11 17 6 9 - - -
16/07:00am - - - - - N 9 20 5 11 - - -
16/06:30am - - - - - NNE 9 17 5 9 - - -
16/06:00am - - - - - NNE 9 15 5 8 - - -
16/05:30am - - - - - NNE 11 19 6 10 - - -
16/05:00am - - - - - NNE 11 19 6 10 - - -
16/04:30am - - - - - NNE 13 19 7 10 - - -
16/04:00am - - - - - NNE 13 26 7 14 - - -
16/03:30am - - - - - NNE 15 26 8 14 - - -
16/03:00am - - - - - NNE 9 17 5 9 - - -
16/02:30am - - - - - NNE 11 19 6 10 - - -
16/02:00am - - - - - NNE 11 17 6 9 - - -
16/01:30am - - - - - NNE 15 24 8 13 - - -
16/01:00am - - - - - NNE 15 24 8 13 - - -
16/12:30am - - - - - NNE 13 22 7 12 - - -
16/12:00am - - - - - NNE 17 30 9 16 - - -
 
Date/Time
EDT
Temp
°C
App
Temp
°C
Dew
Point
°C
Rel
Hum
%
Delta-T
°C
Wind Press
QNH
hPa
Press
MSL
hPa
Rain since
9am
mm
Dir  Spd
km/h
Gust
km/h
Spd
kts
Gust
kts
15/11:30pm - - - - - NNE 13 32 7 17 - - -
15/11:00pm - - - - - NNE 15 33 8 18 - - -
15/10:30pm - - - - - NNE 11 24 6 13 - - -
15/10:00pm - - - - - ENE 15 24 8 13 - - -
15/09:30pm - - - - - ENE 13 20 7 11 - - -
15/09:00pm - - - - - ENE 17 30 9 16 - - -
15/08:30pm - - - - - ENE 17 30 9 16 - - -
15/08:00pm - - - - - ENE 19 30 10 16 - - -
15/07:30pm - - - - - ENE 11 20 6 11 - - -
15/07:00pm - - - - - ENE 17 22 9 12 - - -
15/06:30pm - - - - - ENE 15 26 8 14 - - -
15/06:00pm - - - - - ENE 19 26 10 14 - - -
15/05:30pm - - - - - ENE 19 24 10 13 - - -
15/05:00pm - - - - - ENE 17 20 9 11 - - -
15/04:30pm - - - - - ENE 19 30 10 16 - - -
15/04:00pm - - - - - ENE 19 28 10 15 - - -
15/03:30pm - - - - - ENE 19 24 10 13 - - -

Other formats

Comma delimited format used in spreadsheet applications
http://www.bom.gov.au/fwo/IDN60801/IDN60801.95995.axf

JavaScript Object Notation format (JSON) in row-major order
http://www.bom.gov.au/fwo/IDN60801/IDN60801.95995.json

Data quality

Most of these data are generated automatically and are frequently updated. Quality checks on data are not normally performed. It is possible for incorrect values to appear. Refer to information at About Latest Weather Observations and please check the disclaimer before using these data.